DLH5P LKPR-EDDF
Flight info
| Callsign | DLH5P |
|---|---|
| Flight time | N/A |
| Altitude | 30000 |
| Route | BALTU DCT DONAD DCT RAPET T170 VAGAB/N0394F240 T170 GAPLA T178 KERAX KERAX5D |
| Aircraft | A321/M-SDE3FGHIRWY/LB1 |
Departure
| Time | 2026-05-01 14:54 |
|---|---|
| Airport | Václav Havel Airport Prague (LKPR) |
Arrival
| Time | N/A |
|---|---|
| Airport | Frankfurt Main Airport (EDDF) |
| Time | Latitude | Longitude | Altitude | Speed | Heading |
|---|---|---|---|---|---|
| 2026-05-01 14:44 | 50.10627 | 14.26172 | 1171 ft | 0 kts | 61° |
| 2026-05-01 14:45 | 50.10627 | 14.26170 | 1171 ft | 2 kts | 61° |
| 2026-05-01 14:46 | 50.10615 | 14.26136 | 1172 ft | 4 kts | 62° |
| 2026-05-01 14:46 | 50.10587 | 14.26093 | 1169 ft | 4 kts | 324° |
| 2026-05-01 14:46 | 50.10570 | 14.26122 | 1170 ft | 4 kts | 302° |
| 2026-05-01 14:47 | 50.10565 | 14.26135 | 1170 ft | 0 kts | 300° |
| 2026-05-01 14:49 | 50.10571 | 14.26117 | 1170 ft | 4 kts | 300° |
| 2026-05-01 14:49 | 50.10542 | 14.25987 | 1173 ft | 14 kts | 207° |
| 2026-05-01 14:50 | 50.10408 | 14.26166 | 1175 ft | 19 kts | 127° |
| 2026-05-01 14:50 | 50.10191 | 14.26614 | 1177 ft | 24 kts | 127° |
| 2026-05-01 14:51 | 50.10088 | 14.26827 | 1186 ft | 25 kts | 127° |
| 2026-05-01 14:51 | 50.09872 | 14.27275 | 1202 ft | 26 kts | 128° |
| 2026-05-01 14:52 | 50.09613 | 14.27680 | 1211 ft | 25 kts | 136° |
| 2026-05-01 14:52 | 50.09490 | 14.27870 | 1214 ft | 24 kts | 135° |
| 2026-05-01 14:52 | 50.09257 | 14.28225 | 1213 ft | 22 kts | 136° |
| 2026-05-01 14:53 | 50.09121 | 14.28232 | 1211 ft | 22 kts | 221° |
| 2026-05-01 14:53 | 50.09098 | 14.28060 | 1208 ft | 15 kts | 303° |
| 2026-05-01 14:53 | 50.09200 | 14.27847 | 1211 ft | 54 kts | 307° |
| 2026-05-01 14:53 | 50.09577 | 14.27068 | 1207 ft | 124 kts | 307° |
| 2026-05-01 14:54 | 50.10213 | 14.25759 | 1264 ft | 171 kts | 308° |
| 2026-05-01 14:54 | 50.10911 | 14.24304 | 2009 ft | 168 kts | 308° |
| 2026-05-01 14:54 | 50.11616 | 14.22841 | 2707 ft | 172 kts | 309° |
| 2026-05-01 14:54 | 50.12376 | 14.21275 | 3018 ft | 192 kts | 309° |
| 2026-05-01 14:55 | 50.13203 | 14.19570 | 3236 ft | 212 kts | 309° |
| 2026-05-01 14:55 | 50.14146 | 14.17627 | 3405 ft | 237 kts | 308° |
| 2026-05-01 14:55 | 50.15188 | 14.15472 | 3767 ft | 257 kts | 308° |
| 2026-05-01 14:55 | 50.16276 | 14.13211 | 4503 ft | 263 kts | 308° |
| 2026-05-01 14:56 | 50.17381 | 14.10908 | 5330 ft | 266 kts | 308° |
| 2026-05-01 14:56 | 50.18497 | 14.08580 | 6099 ft | 271 kts | 308° |
| 2026-05-01 14:56 | 50.19597 | 14.06282 | 6792 ft | 277 kts | 309° |
| 2026-05-01 14:56 | 50.20751 | 14.03867 | 7445 ft | 283 kts | 309° |
| 2026-05-01 14:57 | 50.21773 | 14.01204 | 8155 ft | 291 kts | 294° |
| 2026-05-01 14:57 | 50.22141 | 13.94871 | 9581 ft | 303 kts | 257° |
| 2026-05-01 14:57 | 50.21518 | 13.91690 | 10292 ft | 307 kts | 252° |
| 2026-05-01 14:58 | 50.20835 | 13.88455 | 10682 ft | 324 kts | 252° |
| 2026-05-01 14:58 | 50.20106 | 13.85002 | 10814 ft | 346 kts | 251° |
| 2026-05-01 14:58 | 50.19327 | 13.81336 | 11094 ft | 361 kts | 251° |
| 2026-05-01 14:58 | 50.18529 | 13.77573 | 11652 ft | 367 kts | 251° |
| 2026-05-01 14:59 | 50.17736 | 13.73812 | 12247 ft | 372 kts | 251° |
| 2026-05-01 14:59 | 50.16924 | 13.69962 | 12848 ft | 376 kts | 251° |
| 2026-05-01 14:59 | 50.16100 | 13.66062 | 13452 ft | 380 kts | 251° |
| 2026-05-01 14:59 | 50.15265 | 13.62115 | 14059 ft | 384 kts | 251° |
| 2026-05-01 15:00 | 50.13563 | 13.54120 | 15163 ft | 392 kts | 252° |
| 2026-05-01 15:00 | 50.12696 | 13.50066 | 15735 ft | 395 kts | 252° |
| 2026-05-01 15:00 | 50.11821 | 13.45994 | 16301 ft | 398 kts | 252° |
| 2026-05-01 15:01 | 50.10939 | 13.41899 | 16860 ft | 400 kts | 252° |
| 2026-05-01 15:01 | 50.10050 | 13.37773 | 17422 ft | 403 kts | 252° |
| 2026-05-01 15:01 | 50.09238 | 13.33578 | 17973 ft | 405 kts | 259° |
| 2026-05-01 15:01 | 50.08860 | 13.29289 | 18510 ft | 406 kts | 269° |
| 2026-05-01 15:02 | 50.08759 | 13.24833 | 19005 ft | 409 kts | 270° |
| 2026-05-01 15:02 | 50.08690 | 13.21889 | 19321 ft | 410 kts | 270° |
| 2026-05-01 15:02 | 50.08536 | 13.15984 | 19947 ft | 413 kts | 269° |
| 2026-05-01 15:02 | 50.08411 | 13.11504 | 20416 ft | 416 kts | 269° |
| 2026-05-01 15:03 | 50.08283 | 13.06989 | 20880 ft | 418 kts | 269° |
| 2026-05-01 15:03 | 50.08187 | 13.02462 | 21345 ft | 419 kts | 274° |
| 2026-05-01 15:03 | 50.08471 | 12.97944 | 21792 ft | 418 kts | 283° |
| 2026-05-01 15:03 | 50.09167 | 12.93548 | 22231 ft | 419 kts | 288° |
| 2026-05-01 15:04 | 50.09921 | 12.89146 | 22668 ft | 421 kts | 288° |
| 2026-05-01 15:04 | 50.10670 | 12.84720 | 23115 ft | 423 kts | 287° |
| 2026-05-01 15:04 | 50.11417 | 12.80252 | 23562 ft | 426 kts | 287° |
| 2026-05-01 15:04 | 50.12152 | 12.75835 | 23990 ft | 428 kts | 287° |
| 2026-05-01 15:05 | 50.12901 | 12.71332 | 24364 ft | 430 kts | 287° |
| 2026-05-01 15:05 | 50.13647 | 12.66836 | 24739 ft | 432 kts | 287° |
| 2026-05-01 15:05 | 50.14383 | 12.62365 | 25116 ft | 434 kts | 287° |
| 2026-05-01 15:05 | 50.15131 | 12.57804 | 25485 ft | 435 kts | 287° |
| 2026-05-01 15:06 | 50.15885 | 12.53210 | 25859 ft | 437 kts | 287° |
| 2026-05-01 15:06 | 50.16642 | 12.48612 | 26220 ft | 439 kts | 287° |
| 2026-05-01 15:06 | 50.17403 | 12.43991 | 26570 ft | 441 kts | 287° |
| 2026-05-01 15:06 | 50.18159 | 12.39357 | 26937 ft | 442 kts | 287° |
| 2026-05-01 15:07 | 50.18923 | 12.34691 | 27293 ft | 443 kts | 288° |
| 2026-05-01 15:07 | 50.19905 | 12.30135 | 27633 ft | 444 kts | 292° |
| 2026-05-01 15:07 | 50.20956 | 12.25593 | 27988 ft | 445 kts | 292° |
| 2026-05-01 15:07 | 50.22010 | 12.21039 | 28328 ft | 447 kts | 292° |
| 2026-05-01 15:08 | 50.23067 | 12.16453 | 28687 ft | 449 kts | 292° |
| 2026-05-01 15:08 | 50.24110 | 12.11906 | 29012 ft | 451 kts | 292° |
| 2026-05-01 15:08 | 50.25165 | 12.07289 | 29348 ft | 453 kts | 292° |
| 2026-05-01 15:08 | 50.26225 | 12.02635 | 29648 ft | 455 kts | 291° |
| 2026-05-01 15:09 | 50.27287 | 11.97971 | 29966 ft | 456 kts | 291° |
| 2026-05-01 15:09 | 50.28362 | 11.93279 | 30268 ft | 458 kts | 291° |
| 2026-05-01 15:09 | 50.29435 | 11.88604 | 30375 ft | 452 kts | 291° |
| 2026-05-01 15:09 | 50.30478 | 11.84048 | 30378 ft | 441 kts | 291° |
| 2026-05-01 15:10 | 50.31506 | 11.79558 | 30383 ft | 437 kts | 291° |
| 2026-05-01 15:10 | 50.34564 | 11.66142 | 30381 ft | 436 kts | 291° |
| 2026-05-01 15:11 | 50.37584 | 11.52753 | 30384 ft | 436 kts | 291° |
| 2026-05-01 15:12 | 50.39602 | 11.43783 | 30377 ft | 437 kts | 291° |
| 2026-05-01 15:12 | 50.42607 | 11.30289 | 30360 ft | 436 kts | 290° |
| 2026-05-01 15:14 | 50.47579 | 11.07841 | 30345 ft | 436 kts | 290° |
| 2026-05-01 15:14 | 50.50540 | 10.94308 | 30341 ft | 437 kts | 290° |
| 2026-05-01 15:15 | 50.54474 | 10.76317 | 30360 ft | 436 kts | 290° |
| 2026-05-01 15:16 | 50.58580 | 10.58322 | 30355 ft | 437 kts | 291° |
| 2026-05-01 15:18 | 50.63522 | 10.35731 | 30341 ft | 437 kts | 282° |
| 2026-05-01 15:18 | 50.63871 | 10.30970 | 30339 ft | 438 kts | 271° |
| 2026-05-01 15:19 | 50.61305 | 10.17415 | 30339 ft | 438 kts | 244° |
| 2026-05-01 15:19 | 50.57228 | 10.04492 | 30333 ft | 439 kts | 243° |
| 2026-05-01 15:20 | 50.53124 | 9.91622 | 30341 ft | 439 kts | 243° |
| 2026-05-01 15:21 | 50.50408 | 9.83111 | 30331 ft | 439 kts | 243° |
| 2026-05-01 15:21 | 50.47660 | 9.74546 | 30333 ft | 438 kts | 243° |
| 2026-05-01 15:22 | 50.43548 | 9.61758 | 30338 ft | 436 kts | 243° |
| 2026-05-01 15:22 | 50.40825 | 9.53313 | 30343 ft | 435 kts | 243° |
| 2026-05-01 15:23 | 50.38087 | 9.44862 | 30214 ft | 432 kts | 243° |
| 2026-05-01 15:23 | 50.36731 | 9.40683 | 29648 ft | 427 kts | 243° |
| 2026-05-01 15:23 | 50.35389 | 9.36555 | 29056 ft | 423 kts | 243° |
| 2026-05-01 15:24 | 50.34510 | 9.33846 | 28651 ft | 421 kts | 243° |
| 2026-05-01 15:24 | 50.33184 | 9.29778 | 28048 ft | 418 kts | 243° |
| 2026-05-01 15:24 | 50.31861 | 9.25735 | 27470 ft | 415 kts | 243° |
| 2026-05-01 15:24 | 50.30124 | 9.20444 | 26713 ft | 411 kts | 242° |
| 2026-05-01 15:25 | 50.28819 | 9.16469 | 26127 ft | 410 kts | 242° |
| 2026-05-01 15:25 | 50.27957 | 9.13844 | 25771 ft | 408 kts | 242° |
| 2026-05-01 15:25 | 50.26774 | 9.09823 | 25253 ft | 405 kts | 249° |
| 2026-05-01 15:25 | 50.25817 | 9.05685 | 24718 ft | 403 kts | 249° |
| 2026-05-01 15:26 | 50.24863 | 9.01578 | 24188 ft | 402 kts | 249° |
| 2026-05-01 15:26 | 50.23906 | 8.97482 | 23680 ft | 398 kts | 249° |
| 2026-05-01 15:26 | 50.22957 | 8.93431 | 23135 ft | 395 kts | 249° |
| 2026-05-01 15:26 | 50.22015 | 8.89421 | 22572 ft | 392 kts | 248° |
| 2026-05-01 15:27 | 50.21082 | 8.85460 | 22056 ft | 389 kts | 248° |
| 2026-05-01 15:27 | 50.20150 | 8.81512 | 21551 ft | 385 kts | 249° |
| 2026-05-01 15:27 | 50.19240 | 8.77656 | 21045 ft | 382 kts | 248° |
| 2026-05-01 15:28 | 50.17417 | 8.69939 | 19995 ft | 376 kts | 248° |
| 2026-05-01 15:28 | 50.16512 | 8.66130 | 19506 ft | 372 kts | 248° |
| 2026-05-01 15:28 | 50.15615 | 8.62362 | 19007 ft | 369 kts | 248° |
| 2026-05-01 15:29 | 50.13835 | 8.54895 | 17968 ft | 364 kts | 248° |
| 2026-05-01 15:29 | 50.12951 | 8.51201 | 17431 ft | 361 kts | 248° |
| 2026-05-01 15:29 | 50.11231 | 8.44049 | 16385 ft | 356 kts | 247° |
| 2026-05-01 15:30 | 50.09514 | 8.36933 | 15381 ft | 351 kts | 247° |
| 2026-05-01 15:31 | 50.06117 | 8.22909 | 13096 ft | 338 kts | 246° |
| 2026-05-01 15:31 | 50.04484 | 8.16210 | 11212 ft | 324 kts | 246° |
| 2026-05-01 15:32 | 50.02516 | 8.10308 | 10055 ft | 285 kts | 220° |
| 2026-05-01 15:32 | 49.99064 | 8.08245 | 8612 ft | 266 kts | 176° |
| 2026-05-01 15:33 | 49.94737 | 8.12432 | 6944 ft | 243 kts | 120° |
| 2026-05-01 15:34 | 49.94656 | 8.19937 | 4956 ft | 244 kts | 73° |